PWSweather.com
Personal Weather Stations
Station Observations

Acton, CA 93510

Lat: 34.47703, Lon: -118.17483

Elevation: 2900

Station Type: Davis Vantage Pro 2

http://www.actonastro.com/weather/current.php

Latest ConditionsUpdated 5:14:53 AM PDT Thursday, Jun 29, 2017
Currently Today's Max Today's Min Today's Average
Temperature 55.3°F12.9°C 62.8°F17.1°C 55.0°F12.8°C 57.4°F14.1°C
Dew Point 42.9°F6.1°C 49.1°F9.5°C 42.7°F5.9°C 43.8°F6.6°C
Winds Calm Calm 3.0 mph NNW4.8 kmh NNW - 0.8 mph 1.3 kmh
Wind Gusts 3.0 mph4.8 kmh 4.0 mph6.4 kmh - -
Humidity 63% 64% 56% 61%
Pressure 29.68 in1005.1 mb 29.68 in1005.1 mb 29.65 in1004.1 mb -
Hour Temp Dew Point Humidity Winds Wind Gusts Pressure Precip Precip Rate Daily Precip Total
05:14 AM 55.3°F12.9°C 42.9°F6.1°C 63% Calm Calm 3.0 mph4.8 kmh 29.68 in1005.1 mb 0.00 in0.0 mm 0.00 in0.0 mm 0.00 in0.0 mm
05:09 AM 55.3°F12.9°C 42.9°F6.1°C 63% 1.0 mph NNW1.6 kmh NNW 1.0 mph1.6 kmh 29.68 in1005.1 mb 0.00 in0.0 mm 0.00 in0.0 mm 0.00 in0.0 mm
05:04 AM 55.1°F12.8°C 43.1°F6.2°C 64% 1.0 mph NNW1.6 kmh NNW 2.0 mph3.2 kmh 29.68 in1005.1 mb 0.00 in0.0 mm 0.00 in0.0 mm 0.00 in0.0 mm
04:59 AM 55.0°F12.8°C 43.0°F6.1°C 64% Calm Calm 2.0 mph3.2 kmh 29.68 in1005.1 mb 0.00 in0.0 mm 0.00 in0.0 mm 0.00 in0.0 mm
04:54 AM 55.0°F12.8°C 43.0°F6.1°C 64% Calm Calm -- 29.68 in1005.1 mb 0.00 in0.0 mm 0.00 in0.0 mm 0.00 in0.0 mm
04:49 AM 55.0°F12.8°C 43.0°F6.1°C 64% Calm Calm -- 29.68 in1005.1 mb 0.00 in0.0 mm 0.00 in0.0 mm 0.00 in0.0 mm
04:44 AM 55.0°F12.8°C 43.0°F6.1°C 64% 1.0 mph NNW1.6 kmh NNW 2.0 mph3.2 kmh 29.68 in1005.1 mb 0.00 in0.0 mm 0.00 in0.0 mm 0.00 in0.0 mm
04:39 AM 55.0°F12.8°C 43.0°F6.1°C 64% 1.0 mph NNW1.6 kmh NNW 2.0 mph3.2 kmh 29.68 in1005.1 mb 0.00 in0.0 mm 0.00 in0.0 mm 0.00 in0.0 mm
04:34 AM 55.1°F12.8°C 42.7°F5.9°C 63% 1.0 mph NNW1.6 kmh NNW 3.0 mph4.8 kmh 29.68 in1005.1 mb 0.00 in0.0 mm 0.00 in0.0 mm 0.00 in0.0 mm
04:29 AM 55.3°F12.9°C 42.9°F6.1°C 63% 1.0 mph N1.6 kmh N 3.0 mph4.8 kmh 29.68 in1005.1 mb 0.00 in0.0 mm 0.00 in0.0 mm 0.00 in0.0 mm
04:24 AM 55.4°F13.0°C 43.0°F6.1°C 63% 2.0 mph N3.2 kmh N 3.0 mph4.8 kmh 29.68 in1005.1 mb 0.00 in0.0 mm 0.00 in0.0 mm 0.00 in0.0 mm
04:19 AM 55.1°F12.8°C 43.1°F6.2°C 64% 2.0 mph N3.2 kmh N 3.0 mph4.8 kmh 29.68 in1005.1 mb 0.00 in0.0 mm 0.00 in0.0 mm 0.00 in0.0 mm
04:14 AM 55.3°F12.9°C 43.3°F6.3°C 64% Calm Calm -- 29.68 in1005.1 mb 0.00 in0.0 mm 0.00 in0.0 mm 0.00 in0.0 mm
04:09 AM 55.3°F12.9°C 42.9°F6.1°C 63% Calm Calm 3.0 mph4.8 kmh 29.67 in1004.7 mb 0.00 in0.0 mm 0.00 in0.0 mm 0.00 in0.0 mm
04:04 AM 55.3°F12.9°C 43.3°F6.3°C 64% 1.0 mph N1.6 kmh N 3.0 mph4.8 kmh 29.67 in1004.7 mb 0.00 in0.0 mm 0.00 in0.0 mm 0.00 in0.0 mm
03:59 AM 55.3°F12.9°C 43.3°F6.3°C 64% 1.0 mph N1.6 kmh N 2.0 mph3.2 kmh 29.67 in1004.7 mb 0.00 in0.0 mm 0.00 in0.0 mm 0.00 in0.0 mm
03:54 AM 55.4°F13.0°C 43.4°F6.3°C 64% Calm Calm -- 29.67 in1004.7 mb 0.00 in0.0 mm 0.00 in0.0 mm 0.00 in0.0 mm
03:49 AM 55.4°F13.0°C 43.4°F6.3°C 64% Calm Calm -- 29.67 in1004.7 mb 0.00 in0.0 mm 0.00 in0.0 mm 0.00 in0.0 mm
03:44 AM 55.4°F13.0°C 43.4°F6.3°C 64% Calm Calm -- 29.67 in1004.7 mb 0.00 in0.0 mm 0.00 in0.0 mm 0.00 in0.0 mm
03:39 AM 55.6°F13.1°C 43.6°F6.4°C 64% 2.0 mph N3.2 kmh N 3.0 mph4.8 kmh 29.66 in1004.4 mb 0.00 in0.0 mm 0.00 in0.0 mm 0.00 in0.0 mm
03:34 AM 55.7°F13.2°C 43.3°F6.3°C 63% 1.0 mph N1.6 kmh N 2.0 mph3.2 kmh 29.66 in1004.4 mb 0.00 in0.0 mm 0.00 in0.0 mm 0.00 in0.0 mm
03:29 AM 55.9°F13.3°C 43.5°F6.4°C 63% Calm Calm -- 29.66 in1004.4 mb 0.00 in0.0 mm 0.00 in0.0 mm 0.00 in0.0 mm
03:24 AM 56.0°F13.3°C 43.6°F6.4°C 63% Calm Calm 1.0 mph1.6 kmh 29.66 in1004.4 mb 0.00 in0.0 mm 0.00 in0.0 mm 0.00 in0.0 mm
03:19 AM 56.0°F13.3°C 43.6°F6.4°C 63% Calm Calm 1.0 mph1.6 kmh 29.66 in1004.4 mb 0.00 in0.0 mm 0.00 in0.0 mm 0.00 in0.0 mm
03:14 AM 56.2°F13.4°C 43.8°F6.6°C 63% Calm Calm -- 29.66 in1004.4 mb 0.00 in0.0 mm 0.00 in0.0 mm 0.00 in0.0 mm
03:09 AM 56.0°F13.3°C 43.6°F6.4°C 63% 2.0 mph N3.2 kmh N 2.0 mph3.2 kmh 29.66 in1004.4 mb 0.00 in0.0 mm 0.00 in0.0 mm 0.00 in0.0 mm
03:04 AM 56.0°F13.3°C 43.2°F6.2°C 62% 2.0 mph N3.2 kmh N 2.0 mph3.2 kmh 29.66 in1004.4 mb 0.00 in0.0 mm 0.00 in0.0 mm 0.00 in0.0 mm
02:59 AM 56.2°F13.4°C 43.4°F6.3°C 62% Calm Calm 1.0 mph1.6 kmh 29.66 in1004.4 mb 0.00 in0.0 mm 0.00 in0.0 mm 0.00 in0.0 mm
02:54 AM 56.2°F13.4°C 43.4°F6.3°C 62% Calm Calm 2.0 mph3.2 kmh 29.66 in1004.4 mb 0.00 in0.0 mm 0.00 in0.0 mm 0.00 in0.0 mm
02:49 AM 56.3°F13.5°C 43.0°F6.1°C 61% Calm Calm -- 29.66 in1004.4 mb 0.00 in0.0 mm 0.00 in0.0 mm 0.00 in0.0 mm
02:44 AM 56.6°F13.7°C 43.3°F6.3°C 61% Calm Calm 1.0 mph1.6 kmh 29.66 in1004.4 mb 0.00 in0.0 mm 0.00 in0.0 mm 0.00 in0.0 mm
02:39 AM 57.0°F13.9°C 43.7°F6.5°C 61% Calm Calm 2.0 mph3.2 kmh 29.66 in1004.4 mb 0.00 in0.0 mm 0.00 in0.0 mm 0.00 in0.0 mm
02:34 AM 57.2°F14.0°C 43.9°F6.6°C 61% Calm Calm 3.0 mph4.8 kmh 29.66 in1004.4 mb 0.00 in0.0 mm 0.00 in0.0 mm 0.00 in0.0 mm
02:29 AM 57.2°F14.0°C 43.4°F6.3°C 60% 2.0 mph N3.2 kmh N 3.0 mph4.8 kmh 29.66 in1004.4 mb 0.00 in0.0 mm 0.00 in0.0 mm 0.00 in0.0 mm
02:24 AM 57.3°F14.1°C 43.1°F6.2°C 59% 1.0 mph NNE1.6 kmh NNE 3.0 mph4.8 kmh 29.66 in1004.4 mb 0.00 in0.0 mm 0.00 in0.0 mm 0.00 in0.0 mm
02:19 AM 57.5°F14.2°C 43.3°F6.3°C 59% Calm Calm 3.0 mph4.8 kmh 29.66 in1004.4 mb 0.00 in0.0 mm 0.00 in0.0 mm 0.00 in0.0 mm
02:14 AM 57.5°F14.2°C 43.3°F6.3°C 59% 2.0 mph NNW3.2 kmh NNW 2.0 mph3.2 kmh 29.66 in1004.4 mb 0.00 in0.0 mm 0.00 in0.0 mm 0.00 in0.0 mm
02:09 AM 57.8°F14.3°C 43.6°F6.4°C 59% 1.0 mph NNW1.6 kmh NNW 3.0 mph4.8 kmh 29.66 in1004.4 mb 0.00 in0.0 mm 0.00 in0.0 mm 0.00 in0.0 mm
02:04 AM 58.0°F14.4°C 43.8°F6.6°C 59% Calm Calm 3.0 mph4.8 kmh 29.66 in1004.4 mb 0.00 in0.0 mm 0.00 in0.0 mm 0.00 in0.0 mm
01:59 AM 57.8°F14.3°C 43.6°F6.4°C 59% 2.0 mph NNW3.2 kmh NNW 3.0 mph4.8 kmh 29.66 in1004.4 mb 0.00 in0.0 mm 0.00 in0.0 mm 0.00 in0.0 mm
01:54 AM 57.8°F14.3°C 43.6°F6.4°C 59% 3.0 mph NNW4.8 kmh NNW 3.0 mph4.8 kmh 29.67 in1004.7 mb 0.00 in0.0 mm 0.00 in0.0 mm 0.00 in0.0 mm
01:49 AM 58.0°F14.4°C 43.3°F6.3°C 58% 1.0 mph NNW1.6 kmh NNW 2.0 mph3.2 kmh 29.67 in1004.7 mb 0.00 in0.0 mm 0.00 in0.0 mm 0.00 in0.0 mm
01:44 AM 58.4°F14.7°C 43.7°F6.5°C 58% Calm Calm 2.0 mph3.2 kmh 29.67 in1004.7 mb 0.00 in0.0 mm 0.00 in0.0 mm 0.00 in0.0 mm
01:39 AM 58.7°F14.8°C 43.5°F6.4°C 57% Calm Calm -- 29.66 in1004.4 mb 0.00 in0.0 mm 0.00 in0.0 mm 0.00 in0.0 mm
01:34 AM 59.0°F15.0°C 43.8°F6.6°C 57% Calm Calm 2.0 mph3.2 kmh 29.66 in1004.4 mb 0.00 in0.0 mm 0.00 in0.0 mm 0.00 in0.0 mm
01:29 AM 59.3°F15.2°C 43.6°F6.4°C 56% 1.0 mph NNW1.6 kmh NNW 1.0 mph1.6 kmh 29.66 in1004.4 mb 0.00 in0.0 mm 0.00 in0.0 mm 0.00 in0.0 mm
01:24 AM 59.6°F15.3°C 44.3°F6.8°C 57% Calm Calm 1.0 mph1.6 kmh 29.66 in1004.4 mb 0.00 in0.0 mm 0.00 in0.0 mm 0.00 in0.0 mm
01:19 AM 59.5°F15.3°C 44.3°F6.8°C 57% 1.0 mph NNW1.6 kmh NNW 4.0 mph6.4 kmh 29.66 in1004.4 mb 0.00 in0.0 mm 0.00 in0.0 mm 0.00 in0.0 mm
01:14 AM 59.2°F15.1°C 44.0°F6.7°C 57% 2.0 mph NNW3.2 kmh NNW 4.0 mph6.4 kmh 29.66 in1004.4 mb 0.00 in0.0 mm 0.00 in0.0 mm 0.00 in0.0 mm
01:09 AM 59.0°F15.0°C 43.8°F6.6°C 57% Calm Calm 4.0 mph6.4 kmh 29.66 in1004.4 mb 0.00 in0.0 mm 0.00 in0.0 mm 0.00 in0.0 mm
01:04 AM 59.2°F15.1°C 44.0°F6.7°C 57% 2.0 mph N3.2 kmh N 3.0 mph4.8 kmh 29.66 in1004.4 mb 0.00 in0.0 mm 0.00 in0.0 mm 0.00 in0.0 mm
12:59 AM 59.3°F15.2°C 44.1°F6.7°C 57% 1.0 mph NE1.6 kmh NE 2.0 mph3.2 kmh 29.66 in1004.4 mb 0.00 in0.0 mm 0.00 in0.0 mm 0.00 in0.0 mm
12:54 AM 59.6°F15.3°C 44.3°F6.8°C 57% Calm Calm 4.0 mph6.4 kmh 29.66 in1004.4 mb 0.00 in0.0 mm 0.00 in0.0 mm 0.00 in0.0 mm
12:49 AM 59.9°F15.5°C 44.6°F7.0°C 57% 1.0 mph NE1.6 kmh NE 4.0 mph6.4 kmh 29.66 in1004.4 mb 0.00 in0.0 mm 0.00 in0.0 mm 0.00 in0.0 mm
12:44 AM 60.2°F15.7°C 44.4°F6.9°C 56% 3.0 mph NE4.8 kmh NE 4.0 mph6.4 kmh 29.66 in1004.4 mb 0.00 in0.0 mm 0.00 in0.0 mm 0.00 in0.0 mm
12:39 AM 60.2°F15.7°C 44.9°F7.2°C 57% 2.0 mph NNW3.2 kmh NNW 3.0 mph4.8 kmh 29.65 in1004.1 mb 0.00 in0.0 mm 0.00 in0.0 mm 0.00 in0.0 mm
12:34 AM 60.2°F15.7°C 44.9°F7.2°C 57% 3.0 mph NNW4.8 kmh NNW 3.0 mph4.8 kmh 29.65 in1004.1 mb 0.00 in0.0 mm 0.00 in0.0 mm 0.00 in0.0 mm
12:29 AM 60.5°F15.8°C 45.6°F7.6°C 58% 1.0 mph NNW1.6 kmh NNW 2.0 mph3.2 kmh 29.65 in1004.1 mb 0.00 in0.0 mm 0.00 in0.0 mm 0.00 in0.0 mm
12:24 AM 60.7°F15.9°C 45.8°F7.7°C 58% Calm Calm -- 29.65 in1004.1 mb 0.00 in0.0 mm 0.00 in0.0 mm 0.00 in0.0 mm
12:19 AM 61.0°F16.1°C 45.7°F7.6°C 57% 2.0 mph NW3.2 kmh NW 2.0 mph3.2 kmh 29.65 in1004.1 mb 0.00 in0.0 mm 0.00 in0.0 mm 0.00 in0.0 mm
12:14 AM 61.3°F16.3°C 45.9°F7.7°C 57% Calm Calm 2.0 mph3.2 kmh 29.65 in1004.1 mb 0.00 in0.0 mm 0.00 in0.0 mm 0.00 in0.0 mm
12:09 AM 61.5°F16.4°C 46.1°F7.8°C 57% Calm Calm 2.0 mph3.2 kmh 29.65 in1004.1 mb 0.00 in0.0 mm 0.00 in0.0 mm 0.00 in0.0 mm
12:04 AM 62.8°F17.1°C 49.1°F9.5°C 61% 1.0 mph SE1.6 kmh SE 4.0 mph6.4 kmh 29.65 in1004.1 mb 0.00 in0.0 mm 0.00 in0.0 mm 0.00 in0.0 mm